Time;durP1;ratioP1;P1;durP2;ratioP2;P2;SDS_P1;SDS_P2;PMS_P1;PMS_P2;Temp;Humidity;BMP_temperature;BMP_pressure;BME280_temperature;BME280_humidity;BME280_pressure;Samples;Min_cycle;Max_cycle;Signal;HPM_P1;HPM_P2
2022/05/25 00:01:44;;;;;;;;;;;8.80;99.90;;;;;;5024748;28;20351;-66
2022/05/25 00:04:10;;;;;;;;;;;8.80;99.90;;;;;;5017712;28;20016;-66
2022/05/25 00:06:35;;;;;;;;;;;8.90;99.90;;;;;;5012906;28;20003;-66
2022/05/25 00:09:01;;;;;;;;;;;8.80;99.90;;;;;;5027689;28;19930;-66
2022/05/25 00:11:26;;;;;;;;;;;8.80;99.90;;;;;;5021098;28;20339;-66
2022/05/25 00:13:52;;;;;;;;;;;8.80;99.90;;;;;;5022964;28;20331;-66
2022/05/25 00:16:17;;;;;;;;;;;8.80;99.90;;;;;;5027762;28;19972;-66
2022/05/25 00:21:27;;;;;;;;;;;8.70;99.90;;;;;;5012929;28;19929;-66
2022/05/25 00:23:53;;;;;;;;;;;8.80;99.90;;;;;;5012272;28;19926;-67
2022/05/25 00:26:18;;;;;;;;;;;8.70;99.90;;;;;;5012355;28;20010;-66
2022/05/25 00:28:44;;;;;;;;;;;8.70;99.90;;;;;;5015943;28;19968;-66
2022/05/25 00:31:09;;;;;;;;;;;8.70;99.90;;;;;;5027335;28;19929;-66
2022/05/25 00:33:35;;;;;;;;;;;8.70;99.90;;;;;;5022995;28;19926;-66
2022/05/25 00:36:00;;;;;;;;;;;8.70;99.90;;;;;;5019844;28;19980;-66
2022/05/25 00:38:26;;;;;;;;;;;8.60;99.90;;;;;;5029074;28;19925;-66
2022/05/25 00:40:51;;;;;;;;;;;8.70;99.90;;;;;;5015847;28;20296;-66
2022/05/25 00:43:17;;;;;;;;;;;8.70;99.90;;;;;;5025634;28;20016;-66
2022/05/25 00:45:50;;;;;;;;;;;8.60;99.90;;;;;;5022599;28;19932;-66
2022/05/25 00:48:23;;;;;;;;;;;8.60;99.90;;;;;;5018701;28;19926;-67
2022/05/25 00:53:33;;;;;;;;;;;8.60;99.90;;;;;;5021272;28;19925;-67
2022/05/25 00:55:59;;;;;;;;;;;8.60;99.90;;;;;;5021101;28;20445;-67
2022/05/25 00:58:25;;;;;;;;;;;8.60;99.90;;;;;;5012262;28;19932;-66
2022/05/25 01:00:50;;;;;;;;;;;8.60;99.90;;;;;;5027761;28;20297;-66
2022/05/25 01:03:15;;;;;;;;;;;8.50;99.90;;;;;;5013944;28;20289;-66
2022/05/25 01:05:44;;;;;;;;;;;8.60;99.90;;;;;;5023254;28;19972;-66
2022/05/25 01:08:16;;;;;;;;;;;8.50;99.90;;;;;;5017204;28;19975;-66
2022/05/25 01:10:53;;;;;;;;;;;8.50;99.90;;;;;;5030915;28;19925;-66
2022/05/25 01:13:30;;;;;;;;;;;8.50;99.90;;;;;;5040530;28;19925;-66
2022/05/25 01:16:13;;;;;;;;;;;8.50;99.90;;;;;;5012132;28;19961;-66
2022/05/25 01:18:41;;;;;;;;;;;8.50;99.90;;;;;;5015520;28;20361;-66
2022/05/25 01:21:22;;;;;;;;;;;8.40;99.90;;;;;;5032210;28;19925;-66
2022/05/25 01:23:47;;;;;;;;;;;8.40;99.90;;;;;;5024220;28;19933;-66
2022/05/25 01:26:19;;;;;;;;;;;8.40;99.90;;;;;;5031016;28;20666;-66
2022/05/25 01:29:05;;;;;;;;;;;8.40;99.90;;;;;;5031028;28;19928;-66
2022/05/25 01:31:30;;;;;;;;;;;8.40;99.90;;;;;;5024319;28;20067;-66
2022/05/25 01:34:10;;;;;;;;;;;8.40;99.90;;;;;;5014358;28;20377;-66
2022/05/25 01:36:41;;;;;;;;;;;8.50;99.90;;;;;;5029687;28;19948;-66
2022/05/25 01:39:09;;;;;;;;;;;8.40;99.90;;;;;;5009751;28;19925;-66
2022/05/25 01:41:43;;;;;;;;;;;8.50;99.90;;;;;;5019542;28;19929;-66
2022/05/25 01:44:09;;;;;;;;;;;8.40;99.90;;;;;;5001075;28;19944;-66
2022/05/25 01:46:37;;;;;;;;;;;8.40;99.90;;;;;;5029802;28;20385;-66
2022/05/25 01:49:05;;;;;;;;;;;8.40;99.90;;;;;;5009086;28;19926;-66
2022/05/25 01:51:33;;;;;;;;;;;8.40;99.90;;;;;;5025514;28;20011;-66
2022/05/25 01:54:00;;;;;;;;;;;8.40;99.90;;;;;;5014924;28;20404;-66
2022/05/25 01:56:28;;;;;;;;;;;8.40;99.90;;;;;;5014130;28;20347;-66
2022/05/25 01:58:56;;;;;;;;;;;8.40;99.90;;;;;;5014581;28;19968;-66
2022/05/25 02:01:24;;;;;;;;;;;8.40;99.90;;;;;;5013328;28;19926;-66
2022/05/25 02:06:34;;;;;;;;;;;8.40;99.90;;;;;;5012732;28;19925;-66
2022/05/25 02:09:06;;;;;;;;;;;8.40;99.90;;;;;;5014697;28;19975;-66
2022/05/25 02:11:34;;;;;;;;;;;8.40;99.90;;;;;;5031691;28;19926;-66
2022/05/25 02:14:07;;;;;;;;;;;8.40;99.90;;;;;;5014576;28;19999;-66
2022/05/25 02:16:42;;;;;;;;;;;8.40;99.90;;;;;;5011789;28;19925;-67
2022/05/25 02:19:13;;;;;;;;;;;8.40;99.90;;;;;;5031816;28;19932;-66
2022/05/25 02:22:04;;;;;;;;;;;8.50;99.90;;;;;;5032032;28;19932;-66
2022/05/25 02:24:35;;;;;;;;;;;8.50;99.90;;;;;;5031524;28;20492;-66
2022/05/25 02:27:04;;;;;;;;;;;8.50;99.90;;;;;;5028844;28;19926;-66
2022/05/25 02:29:33;;;;;;;;;;;8.60;99.90;;;;;;5030519;28;19925;-66
2022/05/25 02:32:02;;;;;;;;;;;8.60;99.90;;;;;;5031777;28;19925;-66
2022/05/25 02:34:28;;;;;;;;;;;8.60;99.90;;;;;;5030536;28;19929;-66
2022/05/25 02:36:54;;;;;;;;;;;8.60;99.90;;;;;;5032562;28;20335;-66
2022/05/25 02:39:20;;;;;;;;;;;8.60;99.90;;;;;;5031113;28;20059;-66
2022/05/25 02:41:47;;;;;;;;;;;8.60;99.90;;;;;;5027926;28;20015;-66
2022/05/25 02:44:13;;;;;;;;;;;8.60;99.90;;;;;;5011963;28;19950;-66
2022/05/25 02:46:41;;;;;;;;;;;8.60;99.90;;;;;;5010382;28;19925;-66
2022/05/25 02:49:07;;;;;;;;;;;8.50;99.90;;;;;;5012174;28;19925;-66
2022/05/25 02:51:33;;;;;;;;;;;8.60;99.90;;;;;;5010870;28;19987;-66
2022/05/25 02:53:58;;;;;;;;;;;8.60;99.90;;;;;;5011665;28;20380;-66
2022/05/25 02:56:24;;;;;;;;;;;8.50;99.90;;;;;;5015810;28;19929;-66
2022/05/25 02:58:49;;;;;;;;;;;8.60;99.90;;;;;;5030387;28;19929;-66
2022/05/25 03:01:15;;;;;;;;;;;8.50;99.90;;;;;;5031367;28;19932;-66
2022/05/25 03:03:43;;;;;;;;;;;8.50;99.90;;;;;;5031520;28;19929;-66
2022/05/25 03:06:09;;;;;;;;;;;8.50;99.90;;;;;;5011447;28;20017;-66
2022/05/25 03:08:35;;;;;;;;;;;8.50;99.90;;;;;;5010776;28;20016;-66
2022/05/25 03:11:02;;;;;;;;;;;8.50;99.90;;;;;;5014110;28;19976;-66
2022/05/25 03:13:28;;;;;;;;;;;8.50;99.90;;;;;;5015769;28;19929;-66
2022/05/25 03:15:56;;;;;;;;;;;8.40;99.90;;;;;;5015452;28;19932;-66
2022/05/25 03:18:22;;;;;;;;;;;8.40;99.90;;;;;;5014981;28;20004;-66
2022/05/25 03:20:49;;;;;;;;;;;8.40;99.90;;;;;;5013274;28;20351;-66
2022/05/25 03:23:17;;;;;;;;;;;8.40;99.90;;;;;;5032616;28;19929;-66
2022/05/25 03:25:43;;;;;;;;;;;8.40;99.90;;;;;;5035389;28;19925;-66
2022/05/25 03:28:08;;;;;;;;;;;8.40;99.90;;;;;;5033384;28;19932;-66
2022/05/25 03:30:37;;;;;;;;;;;8.40;99.90;;;;;;5050793;28;19925;-66
2022/05/25 03:33:05;;;;;;;;;;;8.50;99.90;;;;;;5016839;28;19926;-66
2022/05/25 03:35:31;;;;;;;;;;;8.50;99.90;;;;;;5014333;28;19948;-66
2022/05/25 03:37:58;;;;;;;;;;;8.50;99.90;;;;;;5013645;28;19929;-66
2022/05/25 03:40:24;;;;;;;;;;;8.50;99.90;;;;;;5023917;28;20015;-66
2022/05/25 03:42:50;;;;;;;;;;;8.50;99.90;;;;;;5021041;28;20024;-66
2022/05/25 03:45:19;;;;;;;;;;;8.50;99.90;;;;;;5019599;28;19925;-67
2022/05/25 03:47:47;;;;;;;;;;;8.50;99.90;;;;;;5025777;28;19929;-67
2022/05/25 03:50:13;;;;;;;;;;;8.50;99.90;;;;;;5023217;28;20075;-67
2022/05/25 03:52:39;;;;;;;;;;;8.60;99.90;;;;;;5023245;28;20592;-67
2022/05/25 03:55:05;;;;;;;;;;;8.60;99.90;;;;;;5024135;28;20004;-66
2022/05/25 03:57:31;;;;;;;;;;;8.50;99.90;;;;;;5033582;28;19925;-66
2022/05/25 03:59:56;;;;;;;;;;;8.60;99.90;;;;;;5034704;28;20357;-66
2022/05/25 04:02:22;;;;;;;;;;;8.70;99.90;;;;;;5033505;28;20464;-67
2022/05/25 04:04:47;;;;;;;;;;;8.60;99.90;;;;;;5022420;28;19925;-67
2022/05/25 04:07:15;;;;;;;;;;;8.70;99.90;;;;;;5015617;28;19972;-67
2022/05/25 04:09:41;;;;;;;;;;;8.60;99.90;;;;;;5014057;28;20330;-66
2022/05/25 04:12:08;;;;;;;;;;;8.70;99.90;;;;;;5013112;28;20013;-67
2022/05/25 04:14:33;;;;;;;;;;;8.70;99.90;;;;;;5013011;28;19973;-66
2022/05/25 04:16:59;;;;;;;;;;;8.70;99.90;;;;;;5015165;28;19972;-66
2022/05/25 04:19:24;;;;;;;;;;;8.80;99.90;;;;;;5034569;28;20281;-68
2022/05/25 04:21:49;;;;;;;;;;;8.80;99.90;;;;;;5031266;28;19929;-67
2022/05/25 04:24:16;;;;;;;;;;;8.80;99.90;;;;;;5022869;28;20039;-66
2022/05/25 04:26:42;;;;;;;;;;;8.90;99.90;;;;;;5028798;28;19971;-69
2022/05/25 04:29:07;;;;;;;;;;;9.00;99.90;;;;;;5026515;28;20357;-70
2022/05/25 04:31:33;;;;;;;;;;;9.00;99.90;;;;;;5030778;28;19966;-73
2022/05/25 04:33:58;;;;;;;;;;;9.10;99.90;;;;;;5027653;28;19933;-71
2022/05/25 04:36:24;;;;;;;;;;;9.20;99.90;;;;;;5030429;28;19978;-71
2022/05/25 04:38:50;;;;;;;;;;;9.20;99.90;;;;;;5030307;28;19929;-70
2022/05/25 04:41:15;;;;;;;;;;;9.40;99.90;;;;;;5023418;28;19925;-68
2022/05/25 04:43:41;;;;;;;;;;;9.40;99.90;;;;;;5033774;28;19967;-68
2022/05/25 04:46:11;;;;;;;;;;;9.50;99.90;;;;;;5032967;28;20376;-67
2022/05/25 04:48:36;;;;;;;;;;;9.60;99.90;;;;;;5032998;28;19949;-68
2022/05/25 04:51:02;;;;;;;;;;;9.60;99.90;;;;;;5049801;28;20296;-67
2022/05/25 04:53:27;;;;;;;;;;;9.70;99.90;;;;;;5031566;28;19937;-67
2022/05/25 04:58:39;;;;;;;;;;;9.90;99.90;;;;;;5043503;28;19932;-67
2022/05/25 05:01:05;;;;;;;;;;;10.00;99.90;;;;;;5023531;28;19928;-67
2022/05/25 05:03:31;;;;;;;;;;;10.20;99.90;;;;;;5026902;28;20289;-67
2022/05/25 05:05:59;;;;;;;;;;;10.30;99.90;;;;;;5032994;28;19925;-67
2022/05/25 05:08:25;;;;;;;;;;;10.30;99.90;;;;;;5032323;28;20281;-67
2022/05/25 05:10:51;;;;;;;;;;;10.40;99.90;;;;;;5034085;28;20380;-67
2022/05/25 05:13:20;;;;;;;;;;;10.50;99.90;;;;;;5032332;28;19929;-67
2022/05/25 05:15:48;;;;;;;;;;;10.50;99.90;;;;;;5032734;28;20369;-67
2022/05/25 05:18:14;;;;;;;;;;;10.60;99.90;;;;;;5012062;28;19925;-68
2022/05/25 05:20:40;;;;;;;;;;;10.70;99.90;;;;;;5012885;28;20281;-67
2022/05/25 05:23:06;;;;;;;;;;;10.80;99.90;;;;;;5017136;28;19933;-68
2022/05/25 05:25:32;;;;;;;;;;;10.90;99.90;;;;;;5031555;28;19952;-72
2022/05/25 05:28:11;;;;;;;;;;;12.10;99.90;;;;;;5031462;28;19994;-70
2022/05/25 05:30:44;;;;;;;;;;;11.20;99.90;;;;;;5033176;28;19925;-70
2022/05/25 05:33:10;;;;;;;;;;;11.30;99.90;;;;;;5028934;28;20015;-70
2022/05/25 05:35:35;;;;;;;;;;;11.40;99.90;;;;;;4997641;28;20379;-72
2022/05/25 05:38:01;;;;;;;;;;;11.50;99.90;;;;;;5013842;28;19925;-75
2022/05/25 05:40:27;;;;;;;;;;;11.60;99.90;;;;;;5022489;28;20009;-73
2022/05/25 05:42:53;;;;;;;;;;;11.60;99.90;;;;;;5010892;28;20020;-72
2022/05/25 05:45:21;;;;;;;;;;;11.70;99.90;;;;;;5009632;28;20183;-75
2022/05/25 05:47:53;;;;;;;;;;;11.80;99.90;;;;;;5027021;28;20330;-69
2022/05/25 05:50:20;;;;;;;;;;;11.80;99.90;;;;;;5011522;28;19929;-69
2022/05/25 05:52:47;;;;;;;;;;;12.00;99.90;;;;;;5013003;28;19925;-70
2022/05/25 05:55:13;;;;;;;;;;;12.00;99.90;;;;;;5012822;28;19951;-70
2022/05/25 05:57:38;;;;;;;;;;;12.10;99.90;;;;;;5011782;28;19929;-68
2022/05/25 06:00:05;;;;;;;;;;;12.10;99.90;;;;;;5012428;28;19925;-66
2022/05/25 06:02:30;;;;;;;;;;;12.30;99.90;;;;;;5011606;28;20072;-66
2022/05/25 06:04:58;;;;;;;;;;;12.40;99.90;;;;;;5012992;28;19930;-67
2022/05/25 06:07:24;;;;;;;;;;;12.40;99.90;;;;;;5013167;28;19948;-68
2022/05/25 06:09:49;;;;;;;;;;;12.50;99.90;;;;;;5010944;28;19930;-67
2022/05/25 06:12:15;;;;;;;;;;;12.50;99.90;;;;;;5011977;28;19922;-68
2022/05/25 06:14:41;;;;;;;;;;;12.70;99.90;;;;;;5012598;28;19933;-67
2022/05/25 06:19:54;;;;;;;;;;;13.00;99.90;;;;;;5025426;28;20412;-65
2022/05/25 06:22:20;;;;;;;;;;;13.00;99.90;;;;;;5032433;28;20303;-66
2022/05/25 06:24:47;;;;;;;;;;;13.00;99.90;;;;;;5031582;28;19929;-67
2022/05/25 06:27:13;;;;;;;;;;;13.00;99.90;;;;;;5017628;28;19933;-68
2022/05/25 06:29:40;;;;;;;;;;;13.10;99.90;;;;;;5011751;28;19925;-68
2022/05/25 06:32:07;;;;;;;;;;;13.20;99.90;;;;;;5011341;28;19932;-69
2022/05/25 06:34:33;;;;;;;;;;;13.30;99.90;;;;;;5006223;28;19925;-70
2022/05/25 06:37:01;;;;;;;;;;;13.30;99.90;;;;;;5009689;28;19964;-74
2022/05/25 06:39:28;;;;;;;;;;;13.40;99.90;;;;;;5012104;28;20017;-76
2022/05/25 06:41:56;;;;;;;;;;;13.60;99.90;;;;;;5020266;28;19925;-70
2022/05/25 06:44:21;;;;;;;;;;;13.60;99.90;;;;;;5031349;28;20339;-71
2022/05/25 06:46:47;;;;;;;;;;;13.90;99.90;;;;;;5033121;28;19933;-71
2022/05/25 06:49:14;;;;;;;;;;;14.00;99.90;;;;;;5035415;28;20443;-72
2022/05/25 06:51:39;;;;;;;;;;;14.20;99.90;;;;;;5034281;28;20288;-72
2022/05/25 06:54:05;;;;;;;;;;;14.30;99.90;;;;;;5021576;28;19926;-71
2022/05/25 06:56:30;;;;;;;;;;;14.40;99.90;;;;;;5016672;28;20071;-75
2022/05/25 06:58:57;;;;;;;;;;;14.80;99.90;;;;;;5017488;28;20339;-75
2022/05/25 07:01:23;;;;;;;;;;;14.70;99.90;;;;;;5014512;28;19948;-73
2022/05/25 07:03:52;;;;;;;;;;;15.20;99.90;;;;;;5014670;28;20297;-72
2022/05/25 07:06:18;;;;;;;;;;;15.00;99.90;;;;;;5013903;28;19926;-68
2022/05/25 07:08:44;;;;;;;;;;;15.10;99.90;;;;;;5015862;28;19971;-70
2022/05/25 07:11:12;;;;;;;;;;;15.20;99.90;;;;;;5015284;28;19995;-70
2022/05/25 07:13:39;;;;;;;;;;;15.00;99.90;;;;;;5016130;28;19972;-72
2022/05/25 07:16:07;;;;;;;;;;;15.00;99.90;;;;;;5014689;28;19925;-70
2022/05/25 07:18:33;;;;;;;;;;;15.20;99.90;;;;;;5014818;28;19933;-70
2022/05/25 07:21:09;;;;;;;;;;;15.30;99.90;;;;;;5013811;28;19926;-70
2022/05/25 07:23:35;;;;;;;;;;;15.70;99.90;;;;;;5014589;28;20416;-70
2022/05/25 07:26:01;;;;;;;;;;;16.40;99.90;;;;;;5013400;28;20019;-70
2022/05/25 07:28:27;;;;;;;;;;;16.80;99.90;;;;;;5015840;28;20533;-71
2022/05/25 07:30:57;;;;;;;;;;;17.10;99.90;;;;;;5034491;28;19932;-71
2022/05/25 07:33:22;;;;;;;;;;;17.50;99.90;;;;;;5033580;28;20003;-71
2022/05/25 07:35:48;;;;;;;;;;;17.70;99.90;;;;;;5035574;28;20019;-71
2022/05/25 07:38:13;;;;;;;;;;;17.60;99.90;;;;;;5030354;28;19980;-71
2022/05/25 07:40:40;;;;;;;;;;;17.40;99.90;;;;;;5023353;28;19925;-71
2022/05/25 07:43:08;;;;;;;;;;;17.90;99.90;;;;;;5033778;28;19932;-71
2022/05/25 07:45:35;;;;;;;;;;;18.50;99.90;;;;;;5034096;28;19929;-71
2022/05/25 07:48:01;;;;;;;;;;;19.00;99.90;;;;;;5034323;28;19936;-71
2022/05/25 07:50:27;;;;;;;;;;;19.40;99.90;;;;;;5033157;28;19988;-71
2022/05/25 07:52:54;;;;;;;;;;;19.90;99.90;;;;;;5033703;28;20024;-71
2022/05/25 07:55:19;;;;;;;;;;;19.90;99.90;;;;;;5033485;28;19975;-71
2022/05/25 07:57:45;;;;;;;;;;;19.70;99.90;;;;;;5032709;28;19929;-71
2022/05/25 08:00:11;;;;;;;;;;;19.80;99.90;;;;;;5033265;28;20503;-71
2022/05/25 08:08:08;;;;;;;;;;;19.40;99.90;;;;;;5012666;28;20012;-71
2022/05/25 08:10:34;;;;;;;;;;;19.30;99.90;;;;;;5013584;28;20012;-71
2022/05/25 08:13:00;;;;;;;;;;;18.90;99.90;;;;;;5014848;28;19925;-71
2022/05/25 08:15:27;;;;;;;;;;;18.70;99.90;;;;;;5014354;28;19992;-71
2022/05/25 08:17:53;;;;;;;;;;;18.60;99.90;;;;;;5013557;28;20016;-71
2022/05/25 08:20:19;;;;;;;;;;;19.00;99.90;;;;;;5025241;28;20451;-71
2022/05/25 08:22:48;;;;;;;;;;;19.10;99.90;;;;;;5032973;28;19975;-71
2022/05/25 08:25:14;;;;;;;;;;;19.10;99.90;;;;;;5032763;28;20033;-71
2022/05/25 08:27:40;;;;;;;;;;;19.00;99.90;;;;;;5032978;28;20455;-71
2022/05/25 08:30:07;;;;;;;;;;;18.80;99.90;;;;;;5032556;28;19983;-71
2022/05/25 08:32:32;;;;;;;;;;;18.80;99.90;;;;;;5032933;28;20052;-71
2022/05/25 08:34:58;;;;;;;;;;;18.40;99.90;;;;;;5020184;28;19992;-71
2022/05/25 08:37:23;;;;;;;;;;;19.00;99.90;;;;;;5013948;28;19926;-71
2022/05/25 08:39:49;;;;;;;;;;;18.30;99.90;;;;;;5013650;28;19925;-71
2022/05/25 08:42:17;;;;;;;;;;;18.20;99.90;;;;;;5013031;28;19998;-71
2022/05/25 08:44:43;;;;;;;;;;;18.50;99.90;;;;;;5013528;28;19925;-71
2022/05/25 08:47:10;;;;;;;;;;;18.30;99.90;;;;;;5012337;28;19925;-71
2022/05/25 08:49:36;;;;;;;;;;;18.50;99.90;;;;;;5025165;28;19925;-71
2022/05/25 08:52:02;;;;;;;;;;;18.60;99.90;;;;;;5032884;28;19932;-71
2022/05/25 08:54:28;;;;;;;;;;;18.40;99.90;;;;;;5031658;28;20031;-71
2022/05/25 08:57:05;;;;;;;;;;;18.10;99.90;;;;;;5032596;28;20369;-71
2022/05/25 08:59:34;;;;;;;;;;;18.10;99.90;;;;;;5031027;28;19929;-71
2022/05/25 09:02:02;;;;;;;;;;;18.30;99.90;;;;;;5032140;28;19973;-71
2022/05/25 09:04:32;;;;;;;;;;;18.40;99.90;;;;;;5032274;28;19925;-71
2022/05/25 09:07:02;;;;;;;;;;;18.50;99.90;;;;;;5032249;28;19933;-71
2022/05/25 09:09:36;;;;;;;;;;;18.60;99.90;;;;;;5029927;28;19936;-71
2022/05/25 09:12:05;;;;;;;;;;;18.90;99.90;;;;;;5031187;28;19989;-71
2022/05/25 09:14:32;;;;;;;;;;;19.30;99.90;;;;;;5031770;28;19972;-71
2022/05/25 09:17:00;;;;;;;;;;;19.50;99.90;;;;;;5033347;28;20028;-72
2022/05/25 09:19:32;;;;;;;;;;;19.90;99.90;;;;;;5031068;28;19976;-71
2022/05/25 09:22:03;;;;;;;;;;;19.90;99.90;;;;;;5032460;28;20341;-72
2022/05/25 09:24:30;;;;;;;;;;;20.10;99.90;;;;;;5032259;28;19936;-71
2022/05/25 09:26:55;;;;;;;;;;;20.30;99.90;;;;;;5032245;28;20288;-71
2022/05/25 09:29:22;;;;;;;;;;;20.20;99.90;;;;;;5031432;28;19925;-71
2022/05/25 09:31:50;;;;;;;;;;;20.10;99.50;;;;;;5033192;28;20013;-71
2022/05/25 09:34:34;;;;;;;;;;;19.60;99.90;;;;;;5030681;28;19925;-72
2022/05/25 09:37:08;;;;;;;;;;;19.40;99.90;;;;;;5031435;28;19932;-71
2022/05/25 09:39:36;;;;;;;;;;;19.10;99.90;;;;;;5028785;28;20015;-71
2022/05/25 09:42:04;;;;;;;;;;;19.10;99.90;;;;;;5032343;28;19925;-71
2022/05/25 09:44:30;;;;;;;;;;;19.70;99.90;;;;;;5032445;28;20288;-72
2022/05/25 09:46:58;;;;;;;;;;;20.30;99.90;;;;;;5032099;28;20011;-72
2022/05/25 09:49:29;;;;;;;;;;;20.30;99.50;;;;;;5030746;28;19925;-71
2022/05/25 09:51:54;;;;;;;;;;;19.80;99.60;;;;;;5031659;28;20300;-71
2022/05/25 09:54:26;;;;;;;;;;;20.10;99.90;;;;;;5030268;28;19928;-72
2022/05/25 09:56:58;;;;;;;;;;;20.30;99.70;;;;;;5032628;28;20393;-71
2022/05/25 09:59:35;;;;;;;;;;;20.20;99.10;;;;;;5030490;28;19933;-71
2022/05/25 10:02:07;;;;;;;;;;;19.70;99.00;;;;;;5010417;28;19991;-71
2022/05/25 10:04:39;;;;;;;;;;;19.50;99.60;;;;;;5011540;28;20293;-71
2022/05/25 10:07:31;;;;;;;;;;;19.00;99.90;;;;;;5011210;28;20027;-71
2022/05/25 10:10:01;;;;;;;;;;;18.60;99.90;;;;;;5008496;28;19933;-71
2022/05/25 10:12:40;;;;;;;;;;;18.20;99.90;;;;;;5011059;28;19984;-71
2022/05/25 10:15:07;;;;;;;;;;;17.80;99.90;;;;;;5015457;28;20016;-71
2022/05/25 10:17:35;;;;;;;;;;;17.40;99.90;;;;;;5030571;28;20369;-71
2022/05/25 10:20:01;;;;;;;;;;;17.20;99.90;;;;;;5030246;28;19925;-71
2022/05/25 10:22:41;;;;;;;;;;;16.80;99.90;;;;;;5031474;28;19986;-71
2022/05/25 10:25:26;;;;;;;;;;;17.30;99.90;;;;;;5031793;28;19935;-71
2022/05/25 10:27:52;;;;;;;;;;;17.40;99.90;;;;;;5030793;28;20845;-71
2022/05/25 10:38:49;;;;;;;;;;;17.30;99.90;;;;;;5030755;28;20388;-71
2022/05/25 10:41:37;;;;;;;;;;;17.20;99.90;;;;;;5030262;28;20376;-71
2022/05/25 10:44:14;;;;;;;;;;;17.40;99.90;;;;;;5029777;28;19925;-71
2022/05/25 10:46:40;;;;;;;;;;;17.80;99.90;;;;;;5030689;28;19925;-71
2022/05/25 10:49:08;;;;;;;;;;;18.10;99.90;;;;;;5030356;28;19929;-71
2022/05/25 10:51:39;;;;;;;;;;;18.40;99.90;;;;;;5031159;28;19968;-71
2022/05/25 10:57:24;;;;;;;;;;;18.60;99.60;;;;;;5031201;28;19965;-71
2022/05/25 10:59:50;;;;;;;;;;;19.10;99.90;;;;;;5031737;28;19932;-71
2022/05/25 11:02:27;;;;;;;;;;;19.80;99.70;;;;;;5025378;28;20281;-71
2022/05/25 11:04:56;;;;;;;;;;;20.00;98.70;;;;;;5010093;28;20080;-71
2022/05/25 11:07:26;;;;;;;;;;;20.40;96.90;;;;;;5010905;28;19948;-71
2022/05/25 11:10:07;;;;;;;;;;;20.60;95.10;;;;;;5010922;28;20024;-72
2022/05/25 11:12:59;;;;;;;;;;;20.60;95.00;;;;;;5010580;28;19925;-71
2022/05/25 11:15:24;;;;;;;;;;;20.60;95.40;;;;;;5011245;28;19971;-71
2022/05/25 11:17:56;;;;;;;;;;;20.60;96.70;;;;;;5017225;28;20038;-71
2022/05/25 11:20:22;;;;;;;;;;;20.60;95.60;;;;;;5029326;28;19925;-71
2022/05/25 11:23:06;;;;;;;;;;;20.40;95.80;;;;;;5031883;28;19932;-71
2022/05/25 11:25:36;;;;;;;;;;;20.40;96.40;;;;;;5029243;28;19987;-71
2022/05/25 11:28:22;;;;;;;;;;;20.10;96.30;;;;;;5021646;28;19925;-72
2022/05/25 11:30:47;;;;;;;;;;;20.00;97.50;;;;;;5012578;28;20020;-71
2022/05/25 11:33:15;;;;;;;;;;;19.80;98.00;;;;;;5014202;28;20016;-71
2022/05/25 11:35:48;;;;;;;;;;;19.70;98.40;;;;;;5014163;28;19929;-71
2022/05/25 11:38:21;;;;;;;;;;;19.80;96.60;;;;;;5013598;28;19929;-71
2022/05/25 11:40:49;;;;;;;;;;;19.90;96.50;;;;;;5011069;28;20293;-71
2022/05/25 11:43:27;;;;;;;;;;;20.00;96.20;;;;;;5018960;28;20028;-70
2022/05/25 11:46:11;;;;;;;;;;;19.70;96.50;;;;;;5025283;28;19979;-68
2022/05/25 11:48:45;;;;;;;;;;;19.60;96.80;;;;;;5016012;28;19926;-71
2022/05/25 11:51:17;;;;;;;;;;;19.40;96.30;;;;;;5019316;28;19936;-69
2022/05/25 11:53:47;;;;;;;;;;;19.40;96.80;;;;;;5011529;28;19930;-70
2022/05/25 11:56:23;;;;;;;;;;;19.50;97.10;;;;;;5024545;28;19965;-73
2022/05/25 11:58:51;;;;;;;;;;;19.70;95.30;;;;;;5031877;28;19976;-74
2022/05/25 12:01:27;;;;;;;;;;;19.50;95.10;;;;;;5031789;28;20265;-71
2022/05/25 12:04:05;;;;;;;;;;;19.30;96.00;;;;;;5046809;28;20281;-70
2022/05/25 12:06:45;;;;;;;;;;;19.00;97.20;;;;;;5033235;28;19929;-70
2022/05/25 12:09:14;;;;;;;;;;;18.90;96.90;;;;;;5018853;28;20426;-69
2022/05/25 12:11:48;;;;;;;;;;;18.80;98.00;;;;;;5032611;28;20339;-70
2022/05/25 12:14:20;;;;;;;;;;;18.70;97.20;;;;;;5034100;28;19965;-70
2022/05/25 12:16:46;;;;;;;;;;;18.70;96.40;;;;;;5032560;28;19925;-70
2022/05/25 12:19:15;;;;;;;;;;;18.80;97.40;;;;;;5034262;28;19925;-71
2022/05/25 12:21:51;;;;;;;;;;;18.40;97.60;;;;;;5023755;28;19933;-70
2022/05/25 12:24:21;;;;;;;;;;;18.20;95.80;;;;;;5028279;28;19925;-72
2022/05/25 12:26:47;;;;;;;;;;;18.40;96.90;;;;;;5023012;28;20020;-73
2022/05/25 12:29:31;;;;;;;;;;;18.60;96.70;;;;;;5023182;28;20016;-74
2022/05/25 12:31:57;;;;;;;;;;;18.30;97.70;;;;;;5023871;28;19980;-74
2022/05/25 12:34:43;;;;;;;;;;;18.40;98.00;;;;;;5020863;28;19968;-69
2022/05/25 12:37:14;;;;;;;;;;;18.30;98.30;;;;;;5022432;28;19973;-70
2022/05/25 12:39:43;;;;;;;;;;;18.10;97.80;;;;;;5018226;28;19979;-70
2022/05/25 12:42:24;;;;;;;;;;;18.10;97.00;;;;;;5012024;28;20010;-69
2022/05/25 12:50:38;;;;;;;;;;;18.30;97.30;;;;;;5012439;28;19926;-70
2022/05/25 12:53:23;;;;;;;;;;;18.60;96.10;;;;;;5024533;28;19929;-69
2022/05/25 12:55:56;;;;;;;;;;;18.60;95.90;;;;;;5013843;28;19932;-70
2022/05/25 12:58:31;;;;;;;;;;;18.40;95.20;;;;;;5012385;28;19929;-70
2022/05/25 13:01:12;;;;;;;;;;;18.30;95.60;;;;;;5012212;28;19925;-70
2022/05/25 13:03:47;;;;;;;;;;;18.10;96.60;;;;;;5011932;28;19937;-69
2022/05/25 13:06:33;;;;;;;;;;;17.80;96.30;;;;;;5026719;28;19925;-68
2022/05/25 13:09:09;;;;;;;;;;;17.70;96.50;;;;;;5005225;28;19926;-68
2022/05/25 13:11:41;;;;;;;;;;;17.70;96.80;;;;;;5027066;28;20039;-69
2022/05/25 13:14:07;;;;;;;;;;;17.80;96.40;;;;;;5024815;28;19935;-69
2022/05/25 13:16:42;;;;;;;;;;;17.80;96.60;;;;;;5021660;28;19929;-70
2022/05/25 13:19:26;;;;;;;;;;;17.90;96.90;;;;;;5026902;28;19929;-69
2022/05/25 13:21:51;;;;;;;;;;;18.20;97.00;;;;;;5027268;28;19940;-69
2022/05/25 13:24:46;;;;;;;;;;;18.40;96.80;;;;;;5026628;28;19929;-69
2022/05/25 13:27:20;;;;;;;;;;;18.40;97.00;;;;;;5017369;28;19928;-69
2022/05/25 13:30:03;;;;;;;;;;;18.30;97.40;;;;;;5008767;28;20789;-69
2022/05/25 13:32:33;;;;;;;;;;;18.10;97.90;;;;;;5007420;28;19977;-71
2022/05/25 13:35:01;;;;;;;;;;;17.90;98.80;;;;;;5024622;28;20387;-70
2022/05/25 13:37:29;;;;;;;;;;;18.00;99.00;;;;;;5027158;28;19936;-68
2022/05/25 13:39:55;;;;;;;;;;;17.70;98.80;;;;;;5016928;28;19929;-68
2022/05/25 13:42:21;;;;;;;;;;;17.80;99.60;;;;;;5014208;28;19940;-68
2022/05/25 13:44:53;;;;;;;;;;;17.90;99.60;;;;;;5020925;28;19986;-69
2022/05/25 13:47:20;;;;;;;;;;;17.90;99.70;;;;;;5019876;28;20029;-69
2022/05/25 13:49:47;;;;;;;;;;;18.00;98.30;;;;;;5026033;28;20742;-69
2022/05/25 13:52:18;;;;;;;;;;;17.80;97.60;;;;;;5021990;28;19948;-68
2022/05/25 13:54:45;;;;;;;;;;;17.80;97.60;;;;;;5018765;28;19960;-68
2022/05/25 13:57:13;;;;;;;;;;;17.60;97.40;;;;;;5028882;28;19933;-70
2022/05/25 13:59:39;;;;;;;;;;;17.50;98.50;;;;;;5027162;28;19929;-70
2022/05/25 14:02:25;;;;;;;;;;;17.30;98.80;;;;;;5017960;28;19925;-76
2022/05/25 14:04:54;;;;;;;;;;;17.50;99.00;;;;;;5021119;28;19925;-73
2022/05/25 14:07:26;;;;;;;;;;;17.20;98.90;;;;;;5030004;28;19925;-73
2022/05/25 14:12:37;;;;;;;;;;;17.10;99.50;;;;;;5010184;28;20319;-74
2022/05/25 14:15:03;;;;;;;;;;;17.20;99.10;;;;;;5009310;28;20420;-74
2022/05/25 14:17:30;;;;;;;;;;;17.40;98.70;;;;;;5012269;28;19979;-73
2022/05/25 14:20:02;;;;;;;;;;;17.20;99.20;;;;;;5011747;28;20020;-73
2022/05/25 14:22:32;;;;;;;;;;;17.30;99.50;;;;;;5020496;28;19929;-73
2022/05/25 14:24:59;;;;;;;;;;;17.40;99.00;;;;;;5012321;28;19926;-73
2022/05/25 14:27:32;;;;;;;;;;;17.50;99.40;;;;;;5011177;28;19925;-73
2022/05/25 14:30:01;;;;;;;;;;;17.50;98.60;;;;;;5028285;28;19960;-73
2022/05/25 14:32:28;;;;;;;;;;;17.50;98.40;;;;;;5027279;28;20016;-73
2022/05/25 14:34:55;;;;;;;;;;;17.40;98.30;;;;;;5024026;28;20022;-75
2022/05/25 14:37:22;;;;;;;;;;;17.40;98.10;;;;;;5018206;28;20008;-73
2022/05/25 14:39:49;;;;;;;;;;;17.90;98.50;;;;;;5021899;28;19926;-74
2022/05/25 14:42:17;;;;;;;;;;;17.80;99.30;;;;;;5021342;28;20384;-73
2022/05/25 14:44:46;;;;;;;;;;;17.40;99.50;;;;;;5020130;28;20300;-73
2022/05/25 14:47:20;;;;;;;;;;;17.40;99.20;;;;;;5020050;28;20369;-72
2022/05/25 14:50:01;;;;;;;;;;;17.30;98.80;;;;;;5022334;28;20155;-71
2022/05/25 14:52:28;;;;;;;;;;;17.40;98.40;;;;;;5019735;28;20343;-72
2022/05/25 14:55:29;;;;;;;;;;;17.30;98.80;;;;;;5021025;28;20012;-71
2022/05/25 14:58:03;;;;;;;;;;;17.40;98.70;;;;;;4985400;28;19948;-72
2022/05/25 15:00:29;;;;;;;;;;;17.50;99.70;;;;;;5004598;28;19948;-72
2022/05/25 15:02:59;;;;;;;;;;;17.70;99.90;;;;;;5009388;28;20364;-72
2022/05/25 15:05:27;;;;;;;;;;;17.70;99.90;;;;;;5012714;28;20329;-72
2022/05/25 15:07:55;;;;;;;;;;;17.80;99.90;;;;;;5027167;28;19968;-72
2022/05/25 15:10:27;;;;;;;;;;;17.70;98.40;;;;;;5018734;28;19925;-72
2022/05/25 15:12:52;;;;;;;;;;;17.70;98.20;;;;;;5032731;28;19952;-72